Terminal Aerodrome Forecast
Issued by NWS

Home | Current Version | Previous Version | Text Only | Print | Product List | Glossary On
Versions: 1 2 3 4 5 6 7 8 9 10 11 12 13 14 15 16
000
FTUS45 KVEF 261700 RRA
TAFHND
TAF
KHND 261741Z 2618/2718 17005KT P6SM FEW150 OVC200
     FM270200 22008KT P6SM VCSH BKN100 OVC150
     FM270600 15005KT 5SM -RA BKN050 OVC080
     FM271000 13005KT P6SM VCSH SCT020 BKN040=

USA.gov is the U.S. government's official web portal to all federal, state and local government web resources and services.